sensor_id;sensor_type;location;lat;lon;timestamp;P1;durP1;ratioP1;P2;durP2;ratioP2
10403;SDS011;5248;47.374;8.486;2023-07-20T00:00:04;3.42;;;2.80;;
10403;SDS011;5248;47.374;8.486;2023-07-20T00:02:32;3.50;;;3.20;;
10403;SDS011;5248;47.374;8.486;2023-07-20T00:04:58;3.78;;;3.15;;
10403;SDS011;5248;47.374;8.486;2023-07-20T00:07:25;3.55;;;2.85;;
10403;SDS011;5248;47.374;8.486;2023-07-20T00:09:53;3.17;;;2.88;;
10403;SDS011;5248;47.374;8.486;2023-07-20T00:12:19;6.38;;;2.75;;
10403;SDS011;5248;47.374;8.486;2023-07-20T00:14:45;2.92;;;2.72;;
10403;SDS011;5248;47.374;8.486;2023-07-20T00:17:12;3.30;;;3.00;;
10403;SDS011;5248;47.374;8.486;2023-07-20T00:19:39;2.85;;;2.53;;
10403;SDS011;5248;47.374;8.486;2023-07-20T00:22:05;3.83;;;2.80;;
10403;SDS011;5248;47.374;8.486;2023-07-20T00:24:32;3.75;;;2.83;;
10403;SDS011;5248;47.374;8.486;2023-07-20T00:27:00;4.60;;;2.40;;
10403;SDS011;5248;47.374;8.486;2023-07-20T00:29:28;2.58;;;2.38;;
10403;SDS011;5248;47.374;8.486;2023-07-20T00:31:54;3.22;;;2.90;;
10403;SDS011;5248;47.374;8.486;2023-07-20T00:34:21;4.00;;;2.90;;
10403;SDS011;5248;47.374;8.486;2023-07-20T00:36:48;2.58;;;2.38;;
10403;SDS011;5248;47.374;8.486;2023-07-20T00:39:15;3.42;;;2.72;;
10403;SDS011;5248;47.374;8.486;2023-07-20T00:41:42;6.47;;;2.75;;
10403;SDS011;5248;47.374;8.486;2023-07-20T00:44:10;2.83;;;2.60;;
10403;SDS011;5248;47.374;8.486;2023-07-20T00:46:37;3.22;;;2.50;;
10403;SDS011;5248;47.374;8.486;2023-07-20T00:49:06;2.75;;;2.55;;
10403;SDS011;5248;47.374;8.486;2023-07-20T00:51:33;2.50;;;2.30;;
10403;SDS011;5248;47.374;8.486;2023-07-20T00:54:00;3.00;;;2.30;;
10403;SDS011;5248;47.374;8.486;2023-07-20T00:56:26;3.88;;;2.30;;
10403;SDS011;5248;47.374;8.486;2023-07-20T00:58:53;4.03;;;3.40;;
10403;SDS011;5248;47.374;8.486;2023-07-20T01:01:21;3.72;;;3.15;;
10403;SDS011;5248;47.374;8.486;2023-07-20T01:03:48;3.13;;;2.63;;
10403;SDS011;5248;47.374;8.486;2023-07-20T01:06:18;2.88;;;2.55;;
10403;SDS011;5248;47.374;8.486;2023-07-20T01:08:55;3.47;;;2.30;;
10403;SDS011;5248;47.374;8.486;2023-07-20T01:11:32;2.55;;;2.35;;
10403;SDS011;5248;47.374;8.486;2023-07-20T01:14:04;5.25;;;2.47;;
10403;SDS011;5248;47.374;8.486;2023-07-20T01:16:33;3.25;;;2.20;;
10403;SDS011;5248;47.374;8.486;2023-07-20T01:19:00;2.58;;;2.38;;
10403;SDS011;5248;47.374;8.486;2023-07-20T01:21:30;4.40;;;2.13;;
10403;SDS011;5248;47.374;8.486;2023-07-20T01:24:04;3.13;;;2.83;;
10403;SDS011;5248;47.374;8.486;2023-07-20T01:26:57;3.50;;;2.47;;
10403;SDS011;5248;47.374;8.486;2023-07-20T01:29:35;4.57;;;2.40;;
10403;SDS011;5248;47.374;8.486;2023-07-20T01:32:13;3.10;;;2.42;;
10403;SDS011;5248;47.374;8.486;2023-07-20T01:34:41;3.85;;;2.53;;
10403;SDS011;5248;47.374;8.486;2023-07-20T01:37:08;3.20;;;2.55;;
10403;SDS011;5248;47.374;8.486;2023-07-20T01:39:35;3.95;;;2.13;;
10403;SDS011;5248;47.374;8.486;2023-07-20T01:42:05;6.72;;;2.35;;
10403;SDS011;5248;47.374;8.486;2023-07-20T01:44:32;3.40;;;2.15;;
10403;SDS011;5248;47.374;8.486;2023-07-20T01:46:58;3.17;;;2.10;;
10403;SDS011;5248;47.374;8.486;2023-07-20T01:49:31;3.47;;;2.40;;
10403;SDS011;5248;47.374;8.486;2023-07-20T01:51:58;2.92;;;2.33;;
10403;SDS011;5248;47.374;8.486;2023-07-20T01:54:24;2.72;;;2.22;;
10403;SDS011;5248;47.374;8.486;2023-07-20T01:56:51;3.55;;;2.17;;
10403;SDS011;5248;47.374;8.486;2023-07-20T01:59:17;2.47;;;2.28;;
10403;SDS011;5248;47.374;8.486;2023-07-20T02:01:44;3.38;;;2.15;;
10403;SDS011;5248;47.374;8.486;2023-07-20T02:04:11;3.78;;;2.25;;
10403;SDS011;5248;47.374;8.486;2023-07-20T02:06:39;3.55;;;2.28;;
10403;SDS011;5248;47.374;8.486;2023-07-20T02:09:06;5.05;;;2.22;;
10403;SDS011;5248;47.374;8.486;2023-07-20T02:11:33;5.38;;;2.40;;
10403;SDS011;5248;47.374;8.486;2023-07-20T02:14:00;2.50;;;1.88;;
10403;SDS011;5248;47.374;8.486;2023-07-20T02:16:27;2.95;;;2.45;;
10403;SDS011;5248;47.374;8.486;2023-07-20T02:18:53;5.25;;;2.17;;
10403;SDS011;5248;47.374;8.486;2023-07-20T02:21:21;3.13;;;1.90;;
10403;SDS011;5248;47.374;8.486;2023-07-20T02:23:51;1.95;;;1.85;;
10403;SDS011;5248;47.374;8.486;2023-07-20T02:26:17;2.70;;;2.15;;
10403;SDS011;5248;47.374;8.486;2023-07-20T02:28:44;5.05;;;2.20;;
10403;SDS011;5248;47.374;8.486;2023-07-20T02:31:10;3.45;;;2.35;;
10403;SDS011;5248;47.374;8.486;2023-07-20T02:33:37;2.78;;;2.33;;
10403;SDS011;5248;47.374;8.486;2023-07-20T02:36:03;4.13;;;1.88;;
10403;SDS011;5248;47.374;8.486;2023-07-20T02:38:32;4.20;;;1.90;;
10403;SDS011;5248;47.374;8.486;2023-07-20T02:41:03;3.60;;;2.00;;
10403;SDS011;5248;47.374;8.486;2023-07-20T02:43:29;3.38;;;2.17;;
10403;SDS011;5248;47.374;8.486;2023-07-20T02:45:56;2.15;;;2.00;;
10403;SDS011;5248;47.374;8.486;2023-07-20T02:48:24;3.05;;;2.10;;
10403;SDS011;5248;47.374;8.486;2023-07-20T02:50:50;3.45;;;2.05;;
10403;SDS011;5248;47.374;8.486;2023-07-20T02:53:17;3.63;;;2.00;;
10403;SDS011;5248;47.374;8.486;2023-07-20T02:55:43;3.78;;;2.15;;
10403;SDS011;5248;47.374;8.486;2023-07-20T02:58:11;2.60;;;1.85;;
10403;SDS011;5248;47.374;8.486;2023-07-20T03:00:39;3.55;;;1.90;;
10403;SDS011;5248;47.374;8.486;2023-07-20T03:03:05;1.98;;;1.80;;
10403;SDS011;5248;47.374;8.486;2023-07-20T03:05:34;3.50;;;2.00;;
10403;SDS011;5248;47.374;8.486;2023-07-20T03:08:03;2.75;;;1.83;;
10403;SDS011;5248;47.374;8.486;2023-07-20T03:10:31;2.47;;;1.85;;
10403;SDS011;5248;47.374;8.486;2023-07-20T03:12:58;1.70;;;1.60;;
10403;SDS011;5248;47.374;8.486;2023-07-20T03:15:26;2.40;;;1.92;;
10403;SDS011;5248;47.374;8.486;2023-07-20T03:17:52;2.13;;;2.00;;
10403;SDS011;5248;47.374;8.486;2023-07-20T03:20:19;2.72;;;1.92;;
10403;SDS011;5248;47.374;8.486;2023-07-20T03:22:45;2.53;;;2.30;;
10403;SDS011;5248;47.374;8.486;2023-07-20T03:25:12;4.63;;;2.15;;
10403;SDS011;5248;47.374;8.486;2023-07-20T03:27:39;2.45;;;2.03;;
10403;SDS011;5248;47.374;8.486;2023-07-20T03:30:07;3.22;;;1.70;;
10403;SDS011;5248;47.374;8.486;2023-07-20T03:32:35;2.88;;;2.10;;
10403;SDS011;5248;47.374;8.486;2023-07-20T03:35:02;3.67;;;2.05;;
10403;SDS011;5248;47.374;8.486;2023-07-20T03:37:30;4.40;;;1.60;;
10403;SDS011;5248;47.374;8.486;2023-07-20T03:39:57;1.80;;;1.55;;
10403;SDS011;5248;47.374;8.486;2023-07-20T03:42:25;2.47;;;2.20;;
10403;SDS011;5248;47.374;8.486;2023-07-20T03:44:59;2.28;;;1.85;;
10403;SDS011;5248;47.374;8.486;2023-07-20T03:47:29;3.10;;;1.80;;
10403;SDS011;5248;47.374;8.486;2023-07-20T03:49:57;2.38;;;2.10;;
10403;SDS011;5248;47.374;8.486;2023-07-20T03:52:24;4.22;;;1.83;;
10403;SDS011;5248;47.374;8.486;2023-07-20T03:54:50;3.60;;;1.95;;
10403;SDS011;5248;47.374;8.486;2023-07-20T03:57:18;1.90;;;1.80;;
10403;SDS011;5248;47.374;8.486;2023-07-20T03:59:45;2.08;;;1.80;;
10403;SDS011;5248;47.374;8.486;2023-07-20T04:02:11;2.40;;;1.80;;
10403;SDS011;5248;47.374;8.486;2023-07-20T04:04:38;2.90;;;2.05;;
10403;SDS011;5248;47.374;8.486;2023-07-20T04:07:06;2.60;;;1.88;;
10403;SDS011;5248;47.374;8.486;2023-07-20T04:09:33;2.97;;;2.10;;
10403;SDS011;5248;47.374;8.486;2023-07-20T04:11:59;2.65;;;1.92;;
10403;SDS011;5248;47.374;8.486;2023-07-20T04:14:27;4.70;;;1.77;;
10403;SDS011;5248;47.374;8.486;2023-07-20T04:16:53;2.10;;;1.90;;
10403;SDS011;5248;47.374;8.486;2023-07-20T04:19:20;2.55;;;1.80;;
10403;SDS011;5248;47.374;8.486;2023-07-20T04:21:46;4.68;;;2.17;;
10403;SDS011;5248;47.374;8.486;2023-07-20T04:24:15;2.38;;;2.20;;
10403;SDS011;5248;47.374;8.486;2023-07-20T04:26:42;1.67;;;1.58;;
10403;SDS011;5248;47.374;8.486;2023-07-20T04:29:08;2.85;;;2.10;;
10403;SDS011;5248;47.374;8.486;2023-07-20T04:31:38;3.03;;;1.83;;
10403;SDS011;5248;47.374;8.486;2023-07-20T04:34:04;2.72;;;2.00;;
10403;SDS011;5248;47.374;8.486;2023-07-20T04:36:31;4.38;;;2.10;;
10403;SDS011;5248;47.374;8.486;2023-07-20T04:38:57;4.15;;;2.05;;
10403;SDS011;5248;47.374;8.486;2023-07-20T04:41:26;1.92;;;1.67;;
10403;SDS011;5248;47.374;8.486;2023-07-20T04:43:54;2.30;;;2.10;;
10403;SDS011;5248;47.374;8.486;2023-07-20T04:46:21;2.70;;;2.00;;
10403;SDS011;5248;47.374;8.486;2023-07-20T04:48:47;6.13;;;2.13;;
10403;SDS011;5248;47.374;8.486;2023-07-20T04:51:13;4.30;;;2.00;;
10403;SDS011;5248;47.374;8.486;2023-07-20T04:53:42;3.28;;;1.98;;
10403;SDS011;5248;47.374;8.486;2023-07-20T04:56:08;3.35;;;1.98;;
10403;SDS011;5248;47.374;8.486;2023-07-20T04:58:37;6.63;;;2.53;;
10403;SDS011;5248;47.374;8.486;2023-07-20T05:01:03;1.75;;;1.65;;
10403;SDS011;5248;47.374;8.486;2023-07-20T05:03:30;2.30;;;2.10;;
10403;SDS011;5248;47.374;8.486;2023-07-20T05:05:57;2.17;;;1.90;;
10403;SDS011;5248;47.374;8.486;2023-07-20T05:08:24;2.83;;;1.92;;
10403;SDS011;5248;47.374;8.486;2023-07-20T05:10:52;2.70;;;1.90;;
10403;SDS011;5248;47.374;8.486;2023-07-20T05:13:18;2.15;;;1.92;;
10403;SDS011;5248;47.374;8.486;2023-07-20T05:15:46;2.45;;;1.90;;
10403;SDS011;5248;47.374;8.486;2023-07-20T05:18:12;3.50;;;2.33;;
10403;SDS011;5248;47.374;8.486;2023-07-20T05:20:45;2.78;;;2.10;;
10403;SDS011;5248;47.374;8.486;2023-07-20T05:23:12;4.35;;;1.98;;
10403;SDS011;5248;47.374;8.486;2023-07-20T05:25:39;2.08;;;1.92;;
10403;SDS011;5248;47.374;8.486;2023-07-20T05:28:05;5.28;;;2.20;;
10403;SDS011;5248;47.374;8.486;2023-07-20T05:30:32;3.03;;;2.72;;
10403;SDS011;5248;47.374;8.486;2023-07-20T05:32:59;2.80;;;2.50;;
10403;SDS011;5248;47.374;8.486;2023-07-20T05:35:26;2.60;;;2.40;;
10403;SDS011;5248;47.374;8.486;2023-07-20T05:37:53;3.53;;;2.20;;
10403;SDS011;5248;47.374;8.486;2023-07-20T05:40:19;4.22;;;2.40;;
10403;SDS011;5248;47.374;8.486;2023-07-20T05:42:46;5.68;;;2.30;;
10403;SDS011;5248;47.374;8.486;2023-07-20T05:45:13;2.30;;;2.00;;
10403;SDS011;5248;47.374;8.486;2023-07-20T05:47:41;4.13;;;1.98;;
10403;SDS011;5248;47.374;8.486;2023-07-20T05:50:09;2.22;;;1.83;;
10403;SDS011;5248;47.374;8.486;2023-07-20T05:52:36;6.30;;;1.85;;
10403;SDS011;5248;47.374;8.486;2023-07-20T05:55:05;3.10;;;1.88;;
10403;SDS011;5248;47.374;8.486;2023-07-20T05:57:33;2.85;;;1.90;;
10403;SDS011;5248;47.374;8.486;2023-07-20T06:00:00;4.25;;;2.17;;
10403;SDS011;5248;47.374;8.486;2023-07-20T06:02:29;2.17;;;1.80;;
10403;SDS011;5248;47.374;8.486;2023-07-20T06:04:57;2.63;;;2.00;;
10403;SDS011;5248;47.374;8.486;2023-07-20T06:07:25;2.78;;;2.30;;
10403;SDS011;5248;47.374;8.486;2023-07-20T06:09:52;2.33;;;2.05;;
10403;SDS011;5248;47.374;8.486;2023-07-20T06:12:19;4.05;;;2.42;;
10403;SDS011;5248;47.374;8.486;2023-07-20T06:14:45;4.95;;;2.75;;
10403;SDS011;5248;47.374;8.486;2023-07-20T06:17:12;3.90;;;2.30;;
10403;SDS011;5248;47.374;8.486;2023-07-20T06:19:39;2.88;;;2.25;;
10403;SDS011;5248;47.374;8.486;2023-07-20T06:22:05;4.22;;;2.60;;
10403;SDS011;5248;47.374;8.486;2023-07-20T06:24:35;3.17;;;2.88;;
10403;SDS011;5248;47.374;8.486;2023-07-20T06:27:01;7.28;;;2.85;;
10403;SDS011;5248;47.374;8.486;2023-07-20T06:29:28;4.85;;;2.85;;
10403;SDS011;5248;47.374;8.486;2023-07-20T06:31:57;3.17;;;2.70;;
10403;SDS011;5248;47.374;8.486;2023-07-20T06:34:23;4.60;;;2.60;;
10403;SDS011;5248;47.374;8.486;2023-07-20T06:36:51;3.08;;;2.40;;
10403;SDS011;5248;47.374;8.486;2023-07-20T06:39:18;5.25;;;2.33;;
10403;SDS011;5248;47.374;8.486;2023-07-20T06:41:48;5.45;;;2.35;;
10403;SDS011;5248;47.374;8.486;2023-07-20T06:44:14;2.67;;;2.40;;
10403;SDS011;5248;47.374;8.486;2023-07-20T06:46:41;7.07;;;2.42;;
10403;SDS011;5248;47.374;8.486;2023-07-20T06:49:07;4.07;;;2.20;;
10403;SDS011;5248;47.374;8.486;2023-07-20T06:51:34;3.95;;;2.25;;
10403;SDS011;5248;47.374;8.486;2023-07-20T06:54:02;3.63;;;2.10;;
10403;SDS011;5248;47.374;8.486;2023-07-20T06:56:29;3.88;;;2.13;;
10403;SDS011;5248;47.374;8.486;2023-07-20T06:58:57;4.93;;;2.15;;
10403;SDS011;5248;47.374;8.486;2023-07-20T07:01:24;2.50;;;2.30;;
10403;SDS011;5248;47.374;8.486;2023-07-20T07:03:51;3.17;;;1.85;;
10403;SDS011;5248;47.374;8.486;2023-07-20T07:06:19;4.28;;;2.20;;
10403;SDS011;5248;47.374;8.486;2023-07-20T07:08:48;2.40;;;2.13;;
10403;SDS011;5248;47.374;8.486;2023-07-20T07:11:15;4.22;;;2.03;;
10403;SDS011;5248;47.374;8.486;2023-07-20T07:13:42;3.17;;;1.92;;
10403;SDS011;5248;47.374;8.486;2023-07-20T07:16:15;3.30;;;2.00;;
10403;SDS011;5248;47.374;8.486;2023-07-20T07:18:43;2.90;;;1.75;;
10403;SDS011;5248;47.374;8.486;2023-07-20T07:21:10;2.28;;;1.90;;
10403;SDS011;5248;47.374;8.486;2023-07-20T07:23:37;3.00;;;2.00;;
10403;SDS011;5248;47.374;8.486;2023-07-20T07:26:04;3.70;;;1.90;;
10403;SDS011;5248;47.374;8.486;2023-07-20T07:28:30;2.97;;;2.00;;
10403;SDS011;5248;47.374;8.486;2023-07-20T07:30:57;4.22;;;2.00;;
10403;SDS011;5248;47.374;8.486;2023-07-20T07:33:25;4.75;;;2.13;;
10403;SDS011;5248;47.374;8.486;2023-07-20T07:35:51;2.17;;;1.77;;
10403;SDS011;5248;47.374;8.486;2023-07-20T07:38:18;7.43;;;2.50;;
10403;SDS011;5248;47.374;8.486;2023-07-20T07:40:44;3.53;;;1.90;;
10403;SDS011;5248;47.374;8.486;2023-07-20T07:43:11;5.07;;;2.13;;
10403;SDS011;5248;47.374;8.486;2023-07-20T07:45:39;2.22;;;1.83;;
10403;SDS011;5248;47.374;8.486;2023-07-20T07:48:06;2.50;;;2.30;;
10403;SDS011;5248;47.374;8.486;2023-07-20T07:50:34;3.80;;;2.22;;
10403;SDS011;5248;47.374;8.486;2023-07-20T07:53:00;4.07;;;2.13;;
10403;SDS011;5248;47.374;8.486;2023-07-20T07:55:28;3.35;;;2.20;;
10403;SDS011;5248;47.374;8.486;2023-07-20T07:57:54;7.88;;;2.40;;
10403;SDS011;5248;47.374;8.486;2023-07-20T08:00:20;3.38;;;2.22;;
10403;SDS011;5248;47.374;8.486;2023-07-20T08:02:50;5.13;;;2.53;;
10403;SDS011;5248;47.374;8.486;2023-07-20T08:05:16;3.42;;;2.15;;
10403;SDS011;5248;47.374;8.486;2023-07-20T08:07:44;3.70;;;2.20;;
10403;SDS011;5248;47.374;8.486;2023-07-20T08:10:11;3.00;;;2.20;;
10403;SDS011;5248;47.374;8.486;2023-07-20T08:12:37;3.83;;;2.03;;
10403;SDS011;5248;47.374;8.486;2023-07-20T08:15:04;3.13;;;2.00;;
10403;SDS011;5248;47.374;8.486;2023-07-20T08:17:31;2.30;;;2.10;;
10403;SDS011;5248;47.374;8.486;2023-07-20T08:19:58;4.03;;;2.10;;
10403;SDS011;5248;47.374;8.486;2023-07-20T08:22:25;2.22;;;2.13;;
10403;SDS011;5248;47.374;8.486;2023-07-20T08:24:53;5.30;;;2.38;;
10403;SDS011;5248;47.374;8.486;2023-07-20T08:27:20;3.90;;;2.45;;
10403;SDS011;5248;47.374;8.486;2023-07-20T08:29:46;2.83;;;1.75;;
10403;SDS011;5248;47.374;8.486;2023-07-20T08:32:13;3.03;;;2.25;;
10403;SDS011;5248;47.374;8.486;2023-07-20T08:34:39;4.85;;;2.40;;
10403;SDS011;5248;47.374;8.486;2023-07-20T08:37:07;2.55;;;1.98;;
10403;SDS011;5248;47.374;8.486;2023-07-20T08:39:35;3.60;;;2.03;;
10403;SDS011;5248;47.374;8.486;2023-07-20T08:42:03;3.55;;;2.00;;
10403;SDS011;5248;47.374;8.486;2023-07-20T08:44:31;3.90;;;2.35;;
10403;SDS011;5248;47.374;8.486;2023-07-20T08:46:58;2.05;;;1.88;;
10403;SDS011;5248;47.374;8.486;2023-07-20T08:49:28;2.25;;;2.05;;
10403;SDS011;5248;47.374;8.486;2023-07-20T08:51:55;5.18;;;2.00;;
10403;SDS011;5248;47.374;8.486;2023-07-20T08:54:22;3.80;;;2.00;;
10403;SDS011;5248;47.374;8.486;2023-07-20T08:56:48;3.58;;;1.80;;
10403;SDS011;5248;47.374;8.486;2023-07-20T08:59:17;2.53;;;1.65;;
10403;SDS011;5248;47.374;8.486;2023-07-20T09:01:44;3.15;;;2.15;;
10403;SDS011;5248;47.374;8.486;2023-07-20T09:04:10;4.38;;;1.70;;
10403;SDS011;5248;47.374;8.486;2023-07-20T09:06:37;3.03;;;1.83;;
10403;SDS011;5248;47.374;8.486;2023-07-20T09:09:04;8.00;;;1.77;;
10403;SDS011;5248;47.374;8.486;2023-07-20T09:11:30;1.75;;;1.65;;
10403;SDS011;5248;47.374;8.486;2023-07-20T09:14:03;2.33;;;1.60;;
10403;SDS011;5248;47.374;8.486;2023-07-20T09:16:32;1.50;;;1.40;;
10403;SDS011;5248;47.374;8.486;2023-07-20T09:19:01;2.28;;;1.80;;
10403;SDS011;5248;47.374;8.486;2023-07-20T09:21:28;3.58;;;1.90;;
10403;SDS011;5248;47.374;8.486;2023-07-20T09:23:56;3.03;;;1.80;;
10403;SDS011;5248;47.374;8.486;2023-07-20T09:26:22;2.67;;;1.80;;
10403;SDS011;5248;47.374;8.486;2023-07-20T09:28:52;3.53;;;2.03;;
10403;SDS011;5248;47.374;8.486;2023-07-20T09:31:20;4.13;;;2.00;;
10403;SDS011;5248;47.374;8.486;2023-07-20T09:33:48;1.95;;;1.83;;
10403;SDS011;5248;47.374;8.486;2023-07-20T09:36:16;2.45;;;1.83;;
10403;SDS011;5248;47.374;8.486;2023-07-20T09:38:42;3.80;;;1.95;;
10403;SDS011;5248;47.374;8.486;2023-07-20T09:41:12;2.28;;;1.88;;
10403;SDS011;5248;47.374;8.486;2023-07-20T09:43:39;2.22;;;1.90;;
10403;SDS011;5248;47.374;8.486;2023-07-20T09:46:06;2.35;;;1.80;;
10403;SDS011;5248;47.374;8.486;2023-07-20T09:48:33;3.75;;;1.75;;
10403;SDS011;5248;47.374;8.486;2023-07-20T09:51:00;2.83;;;2.05;;
10403;SDS011;5248;47.374;8.486;2023-07-20T09:53:28;1.95;;;1.80;;
10403;SDS011;5248;47.374;8.486;2023-07-20T09:55:54;4.28;;;1.80;;
10403;SDS011;5248;47.374;8.486;2023-07-20T09:58:21;3.72;;;1.45;;
10403;SDS011;5248;47.374;8.486;2023-07-20T10:00:48;2.13;;;1.85;;
10403;SDS011;5248;47.374;8.486;2023-07-20T10:03:18;3.05;;;1.95;;
10403;SDS011;5248;47.374;8.486;2023-07-20T10:05:46;2.95;;;1.95;;
10403;SDS011;5248;47.374;8.486;2023-07-20T10:08:16;2.20;;;2.03;;
10403;SDS011;5248;47.374;8.486;2023-07-20T10:10:45;2.97;;;1.80;;
10403;SDS011;5248;47.374;8.486;2023-07-20T10:13:14;1.70;;;1.60;;
10403;SDS011;5248;47.374;8.486;2023-07-20T10:15:46;1.70;;;1.60;;
10403;SDS011;5248;47.374;8.486;2023-07-20T10:18:14;4.68;;;2.03;;
10403;SDS011;5248;47.374;8.486;2023-07-20T10:20:45;1.73;;;1.52;;
10403;SDS011;5248;47.374;8.486;2023-07-20T10:23:12;3.28;;;2.00;;
10403;SDS011;5248;47.374;8.486;2023-07-20T10:25:40;2.88;;;2.22;;
10403;SDS011;5248;47.374;8.486;2023-07-20T10:28:08;2.20;;;2.00;;
10403;SDS011;5248;47.374;8.486;2023-07-20T10:30:34;2.15;;;2.00;;
10403;SDS011;5248;47.374;8.486;2023-07-20T10:33:01;2.53;;;1.80;;
10403;SDS011;5248;47.374;8.486;2023-07-20T10:35:28;1.75;;;1.55;;
10403;SDS011;5248;47.374;8.486;2023-07-20T10:37:59;2.05;;;1.90;;
10403;SDS011;5248;47.374;8.486;2023-07-20T10:40:27;2.53;;;2.00;;
10403;SDS011;5248;47.374;8.486;2023-07-20T10:43:03;2.63;;;2.28;;
10403;SDS011;5248;47.374;8.486;2023-07-20T10:45:35;1.92;;;1.80;;
10403;SDS011;5248;47.374;8.486;2023-07-20T10:48:14;1.85;;;1.75;;
10403;SDS011;5248;47.374;8.486;2023-07-20T10:50:42;3.65;;;1.83;;
10403;SDS011;5248;47.374;8.486;2023-07-20T10:53:15;2.58;;;1.73;;
10403;SDS011;5248;47.374;8.486;2023-07-20T10:55:42;2.72;;;1.92;;
10403;SDS011;5248;47.374;8.486;2023-07-20T10:58:12;3.03;;;2.10;;
10403;SDS011;5248;47.374;8.486;2023-07-20T11:01:00;3.78;;;2.20;;
10403;SDS011;5248;47.374;8.486;2023-07-20T11:03:30;3.55;;;2.17;;
10403;SDS011;5248;47.374;8.486;2023-07-20T11:05:58;2.38;;;2.08;;
10403;SDS011;5248;47.374;8.486;2023-07-20T11:08:40;1.95;;;1.70;;
10403;SDS011;5248;47.374;8.486;2023-07-20T11:11:20;2.00;;;1.90;;
10403;SDS011;5248;47.374;8.486;2023-07-20T11:13:54;2.38;;;2.17;;
10403;SDS011;5248;47.374;8.486;2023-07-20T11:16:31;2.28;;;2.08;;
10403;SDS011;5248;47.374;8.486;2023-07-20T11:18:59;1.90;;;1.80;;
10403;SDS011;5248;47.374;8.486;2023-07-20T11:21:25;2.03;;;1.77;;
10403;SDS011;5248;47.374;8.486;2023-07-20T11:23:52;3.55;;;2.28;;
10403;SDS011;5248;47.374;8.486;2023-07-20T11:26:18;1.98;;;1.88;;
10403;SDS011;5248;47.374;8.486;2023-07-20T11:28:48;1.95;;;1.80;;
10403;SDS011;5248;47.374;8.486;2023-07-20T11:31:16;2.70;;;2.00;;
10403;SDS011;5248;47.374;8.486;2023-07-20T11:33:43;4.20;;;2.42;;
10403;SDS011;5248;47.374;8.486;2023-07-20T11:36:09;2.25;;;2.05;;
10403;SDS011;5248;47.374;8.486;2023-07-20T11:38:35;2.35;;;2.15;;
10403;SDS011;5248;47.374;8.486;2023-07-20T11:41:02;4.43;;;2.22;;
10403;SDS011;5248;47.374;8.486;2023-07-20T11:43:29;2.65;;;2.05;;
10403;SDS011;5248;47.374;8.486;2023-07-20T11:45:56;4.50;;;2.30;;
10403;SDS011;5248;47.374;8.486;2023-07-20T11:48:23;2.47;;;2.28;;
10403;SDS011;5248;47.374;8.486;2023-07-20T11:50:50;2.85;;;2.25;;
10403;SDS011;5248;47.374;8.486;2023-07-20T11:53:16;2.33;;;2.00;;
10403;SDS011;5248;47.374;8.486;2023-07-20T11:55:43;8.52;;;2.08;;
10403;SDS011;5248;47.374;8.486;2023-07-20T11:58:11;3.45;;;2.15;;
10403;SDS011;5248;47.374;8.486;2023-07-20T12:00:41;2.22;;;2.13;;
10403;SDS011;5248;47.374;8.486;2023-07-20T12:03:19;2.60;;;2.20;;
10403;SDS011;5248;47.374;8.486;2023-07-20T12:05:47;2.78;;;2.17;;
10403;SDS011;5248;47.374;8.486;2023-07-20T12:08:15;2.40;;;2.20;;
10403;SDS011;5248;47.374;8.486;2023-07-20T12:10:41;2.80;;;1.92;;
10403;SDS011;5248;47.374;8.486;2023-07-20T12:13:09;3.92;;;2.13;;
10403;SDS011;5248;47.374;8.486;2023-07-20T12:15:37;2.95;;;2.13;;
10403;SDS011;5248;47.374;8.486;2023-07-20T12:18:05;2.20;;;2.00;;
10403;SDS011;5248;47.374;8.486;2023-07-20T12:20:32;2.80;;;2.00;;
10403;SDS011;5248;47.374;8.486;2023-07-20T12:23:03;2.88;;;2.55;;
10403;SDS011;5248;47.374;8.486;2023-07-20T12:25:34;3.08;;;2.30;;
10403;SDS011;5248;47.374;8.486;2023-07-20T12:28:04;5.07;;;2.30;;
10403;SDS011;5248;47.374;8.486;2023-07-20T12:30:31;2.95;;;2.38;;
10403;SDS011;5248;47.374;8.486;2023-07-20T12:32:58;2.80;;;2.47;;
10403;SDS011;5248;47.374;8.486;2023-07-20T12:35:24;1.88;;;1.75;;
10403;SDS011;5248;47.374;8.486;2023-07-20T12:37:51;2.60;;;2.40;;
10403;SDS011;5248;47.374;8.486;2023-07-20T12:40:20;3.00;;;2.38;;
10403;SDS011;5248;47.374;8.486;2023-07-20T12:42:46;2.53;;;2.05;;
10403;SDS011;5248;47.374;8.486;2023-07-20T12:45:13;4.22;;;2.13;;
10403;SDS011;5248;47.374;8.486;2023-07-20T12:47:39;3.03;;;2.22;;
10403;SDS011;5248;47.374;8.486;2023-07-20T12:50:07;3.42;;;2.50;;
10403;SDS011;5248;47.374;8.486;2023-07-20T12:52:35;2.10;;;1.98;;
10403;SDS011;5248;47.374;8.486;2023-07-20T12:55:02;2.10;;;1.90;;
10403;SDS011;5248;47.374;8.486;2023-07-20T12:57:30;2.63;;;2.38;;
10403;SDS011;5248;47.374;8.486;2023-07-20T12:59:57;4.45;;;2.35;;
10403;SDS011;5248;47.374;8.486;2023-07-20T13:02:23;3.85;;;2.38;;
10403;SDS011;5248;47.374;8.486;2023-07-20T13:04:50;3.20;;;2.25;;
10403;SDS011;5248;47.374;8.486;2023-07-20T13:07:16;2.10;;;1.90;;
10403;SDS011;5248;47.374;8.486;2023-07-20T13:09:43;2.13;;;1.92;;
10403;SDS011;5248;47.374;8.486;2023-07-20T13:12:09;2.58;;;2.33;;
10403;SDS011;5248;47.374;8.486;2023-07-20T13:14:37;2.40;;;2.15;;
10403;SDS011;5248;47.374;8.486;2023-07-20T13:17:04;2.20;;;2.00;;
10403;SDS011;5248;47.374;8.486;2023-07-20T13:19:30;2.17;;;2.08;;
10403;SDS011;5248;47.374;8.486;2023-07-20T13:21:57;1.90;;;1.80;;
10403;SDS011;5248;47.374;8.486;2023-07-20T13:24:23;2.30;;;2.10;;
10403;SDS011;5248;47.374;8.486;2023-07-20T13:26:50;2.15;;;2.05;;
10403;SDS011;5248;47.374;8.486;2023-07-20T13:29:16;3.53;;;2.10;;
10403;SDS011;5248;47.374;8.486;2023-07-20T13:31:45;2.63;;;2.33;;
10403;SDS011;5248;47.374;8.486;2023-07-20T13:34:12;2.50;;;2.30;;
10403;SDS011;5248;47.374;8.486;2023-07-20T13:36:38;3.35;;;2.10;;
10403;SDS011;5248;47.374;8.486;2023-07-20T13:39:04;2.55;;;2.15;;
10403;SDS011;5248;47.374;8.486;2023-07-20T13:41:31;2.40;;;2.20;;
10403;SDS011;5248;47.374;8.486;2023-07-20T13:43:58;2.78;;;2.00;;
10403;SDS011;5248;47.374;8.486;2023-07-20T13:46:24;2.00;;;1.90;;
10403;SDS011;5248;47.374;8.486;2023-07-20T13:48:52;2.45;;;2.25;;
10403;SDS011;5248;47.374;8.486;2023-07-20T13:51:18;2.75;;;2.20;;
10403;SDS011;5248;47.374;8.486;2023-07-20T13:53:45;2.40;;;2.20;;
10403;SDS011;5248;47.374;8.486;2023-07-20T13:56:11;2.80;;;2.25;;
10403;SDS011;5248;47.374;8.486;2023-07-20T13:58:38;2.38;;;2.22;;
10403;SDS011;5248;47.374;8.486;2023-07-20T14:01:04;3.22;;;2.30;;
10403;SDS011;5248;47.374;8.486;2023-07-20T14:03:30;2.30;;;2.10;;
10403;SDS011;5248;47.374;8.486;2023-07-20T14:05:58;3.97;;;1.98;;
10403;SDS011;5248;47.374;8.486;2023-07-20T14:08:25;4.05;;;2.05;;
10403;SDS011;5248;47.374;8.486;2023-07-20T14:10:51;2.75;;;2.40;;
10403;SDS011;5248;47.374;8.486;2023-07-20T14:13:18;3.28;;;2.05;;
10403;SDS011;5248;47.374;8.486;2023-07-20T14:15:44;3.10;;;2.17;;
10403;SDS011;5248;47.374;8.486;2023-07-20T14:18:11;2.22;;;2.03;;
10403;SDS011;5248;47.374;8.486;2023-07-20T14:20:38;2.22;;;2.03;;
10403;SDS011;5248;47.374;8.486;2023-07-20T14:23:08;2.28;;;2.08;;
10403;SDS011;5248;47.374;8.486;2023-07-20T14:25:34;3.17;;;2.20;;
10403;SDS011;5248;47.374;8.486;2023-07-20T14:28:01;3.80;;;2.25;;
10403;SDS011;5248;47.374;8.486;2023-07-20T14:30:27;2.65;;;2.05;;
10403;SDS011;5248;47.374;8.486;2023-07-20T14:32:54;2.63;;;2.17;;
10403;SDS011;5248;47.374;8.486;2023-07-20T14:35:20;2.10;;;1.90;;
10403;SDS011;5248;47.374;8.486;2023-07-20T14:37:47;2.80;;;2.28;;
10403;SDS011;5248;47.374;8.486;2023-07-20T14:40:16;2.95;;;2.20;;
10403;SDS011;5248;47.374;8.486;2023-07-20T14:42:43;3.25;;;2.03;;
10403;SDS011;5248;47.374;8.486;2023-07-20T14:45:10;2.72;;;2.35;;
10403;SDS011;5248;47.374;8.486;2023-07-20T14:47:39;2.30;;;1.90;;
10403;SDS011;5248;47.374;8.486;2023-07-20T14:50:06;2.13;;;1.90;;
10403;SDS011;5248;47.374;8.486;2023-07-20T14:52:32;1.95;;;1.85;;
10403;SDS011;5248;47.374;8.486;2023-07-20T14:54:59;3.97;;;2.30;;
10403;SDS011;5248;47.374;8.486;2023-07-20T14:57:29;4.60;;;2.10;;
10403;SDS011;5248;47.374;8.486;2023-07-20T14:59:55;4.93;;;1.95;;
10403;SDS011;5248;47.374;8.486;2023-07-20T15:02:22;3.55;;;2.17;;